Time;durP1;ratioP1;P1;durP2;ratioP2;P2;SDS_P1;SDS_P2;PMS_P1;PMS_P2;Temp;Humidity;BMP_temperature;BMP_pressure;BME280_temperature;BME280_humidity;BME280_pressure;Samples;Min_cycle;Max_cycle;Signal;HPM_P1;HPM_P2
2023/06/19 00:00:15;;;;;;;;;;;;;;;;;;5010817;28;20016;-72
2023/06/19 00:02:42;;;;;;;;;;;;;;;;;;5011251;28;19926;-72
2023/06/19 00:05:09;;;;;;;;;;;;;;;;;;5010100;28;19929;-72
2023/06/19 00:07:35;;;;;;;;;;;;;;;;;;5010756;28;20387;-72
2023/06/19 00:10:02;;;;;;;;;;;;;;;;;;5010623;28;19926;-72
2023/06/19 00:12:28;;;;;;;;;;;;;;;;;;5010497;28;19929;-72
2023/06/19 00:14:54;;;;;;;;;;;;;;;;;;5010986;28;19932;-72
2023/06/19 00:17:26;;;;;;;;;;;;;;;;;;5026117;28;19925;-72
2023/06/19 00:19:52;;;;;;;;;;;;;;;;;;5030082;28;20329;-71
2023/06/19 00:22:19;;;;;;;;;;;;;;;;;;5030780;28;19925;-72
2023/06/19 00:24:45;;;;;;;;;;;;;;;;;;5030330;28;19925;-72
2023/06/19 00:27:12;;;;;;;;;;;;;;;;;;5030235;28;19925;-72
2023/06/19 00:29:38;;;;;;;;;;;;;;;;;;5030089;28;19951;-72
2023/06/19 00:32:05;;;;;;;;;;;;;;;;;;5031698;28;19952;-72
2023/06/19 00:34:33;;;;;;;;;;;;;;;;;;5030234;28;20477;-72
2023/06/19 00:36:59;;;;;;;;;;;;;;;;;;5030831;28;20413;-72
2023/06/19 00:39:27;;;;;;;;;;;;;;;;;;5030074;28;19955;-72
2023/06/19 00:41:53;;;;;;;;;;;;;;;;;;5030358;28;19925;-72
2023/06/19 00:44:20;;;;;;;;;;;;;;;;;;5030514;28;20437;-72
2023/06/19 00:46:46;;;;;;;;;;;;;;;;;;5017056;28;20020;-72
2023/06/19 00:49:14;;;;;;;;;;;;;;;;;;5010808;28;19932;-72
2023/06/19 00:51:42;;;;;;;;;;;;;;;;;;5009867;28;19932;-72
2023/06/19 00:54:08;;;;;;;;;;;;;;;;;;5009346;28;20408;-72
2023/06/19 00:56:37;;;;;;;;;;;;;;;;;;5009921;28;19989;-72
2023/06/19 00:59:06;;;;;;;;;;;;;;;;;;5010705;28;19937;-71
2023/06/19 01:01:32;;;;;;;;;;;;;;;;;;5010062;28;20341;-72
2023/06/19 01:03:58;;;;;;;;;;;;;;;;;;5010850;28;19929;-71
2023/06/19 01:06:27;;;;;;;;;;;;;;;;;;5010018;28;19925;-72
2023/06/19 01:08:58;;;;;;;;;;;;;;;;;;5010601;28;19925;-72
2023/06/19 01:11:26;;;;;;;;;;;;;;;;;;5009889;28;19926;-71
2023/06/19 01:13:55;;;;;;;;;;;;;;;;;;5010205;28;19925;-72
2023/06/19 01:16:22;;;;;;;;;;;;;;;;;;5011681;28;20268;-72
2023/06/19 01:18:49;;;;;;;;;;;;;;;;;;5014053;28;19930;-72
2023/06/19 01:21:16;;;;;;;;;;;;;;;;;;5013170;28;19925;-72
2023/06/19 01:23:44;;;;;;;;;;;;;;;;;;5013738;28;19929;-72
2023/06/19 01:26:11;;;;;;;;;;;;;;;;;;5013514;28;19936;-72
2023/06/19 01:28:39;;;;;;;;;;;;;;;;;;5013139;28;19926;-72
2023/06/19 01:31:06;;;;;;;;;;;;;;;;;;5013296;28;20290;-72
2023/06/19 01:33:34;;;;;;;;;;;;;;;;;;5013215;28;19972;-71
2023/06/19 01:36:02;;;;;;;;;;;;;;;;;;5013098;28;19932;-71
2023/06/19 01:38:29;;;;;;;;;;;;;;;;;;5013093;28;20386;-71
2023/06/19 01:40:58;;;;;;;;;;;;;;;;;;5013032;28;19971;-72
2023/06/19 01:43:25;;;;;;;;;;;;;;;;;;5013046;28;19925;-72
2023/06/19 01:45:52;;;;;;;;;;;;;;;;;;5016323;28;20008;-73
2023/06/19 01:48:18;;;;;;;;;;;;;;;;;;5032876;28;19929;-72
2023/06/19 01:50:46;;;;;;;;;;;;;;;;;;5032602;28;20415;-72
2023/06/19 01:53:13;;;;;;;;;;;;;;;;;;5031543;28;20024;-72
2023/06/19 01:55:39;;;;;;;;;;;;;;;;;;5033112;28;19925;-72
2023/06/19 01:58:07;;;;;;;;;;;;;;;;;;5032931;28;20011;-72
2023/06/19 02:00:35;;;;;;;;;;;;;;;;;;5032134;28;19932;-72
2023/06/19 02:03:01;;;;;;;;;;;;;;;;;;5032818;28;19925;-72
2023/06/19 02:05:28;;;;;;;;;;;;;;;;;;5032477;28;19932;-72
2023/06/19 02:07:54;;;;;;;;;;;;;;;;;;5032988;28;20453;-72
2023/06/19 02:10:21;;;;;;;;;;;;;;;;;;5032120;28;20016;-72
2023/06/19 02:12:47;;;;;;;;;;;;;;;;;;5032762;28;20007;-72
2023/06/19 02:15:15;;;;;;;;;;;;;;;;;;5032473;28;20016;-72
2023/06/19 02:17:42;;;;;;;;;;;;;;;;;;5012472;28;20350;-72
2023/06/19 02:20:11;;;;;;;;;;;;;;;;;;5012175;28;19926;-72
2023/06/19 02:22:38;;;;;;;;;;;;;;;;;;5013147;28;19952;-72
2023/06/19 02:25:05;;;;;;;;;;;;;;;;;;5012787;28;20016;-73
2023/06/19 02:27:31;;;;;;;;;;;;;;;;;;5011643;28;19925;-72
2023/06/19 02:29:58;;;;;;;;;;;;;;;;;;5011879;28;20326;-73
2023/06/19 02:32:26;;;;;;;;;;;;;;;;;;5012153;28;19983;-73
2023/06/19 02:34:52;;;;;;;;;;;;;;;;;;5012944;28;19929;-72
2023/06/19 02:37:19;;;;;;;;;;;;;;;;;;5011883;28;20024;-72
2023/06/19 02:39:45;;;;;;;;;;;;;;;;;;5012169;28;20362;-72
2023/06/19 02:42:12;;;;;;;;;;;;;;;;;;5012202;28;19925;-73
2023/06/19 02:44:38;;;;;;;;;;;;;;;;;;5011974;28;20020;-72
2023/06/19 02:47:05;;;;;;;;;;;;;;;;;;5010847;28;20540;-73
2023/06/19 02:49:33;;;;;;;;;;;;;;;;;;5011829;28;19925;-73
2023/06/19 02:51:59;;;;;;;;;;;;;;;;;;5011745;28;19929;-73
2023/06/19 02:54:26;;;;;;;;;;;;;;;;;;5022965;28;19929;-72
2023/06/19 02:56:52;;;;;;;;;;;;;;;;;;5031513;28;19932;-72
2023/06/19 02:59:18;;;;;;;;;;;;;;;;;;5030780;28;20090;-72
2023/06/19 03:01:45;;;;;;;;;;;;;;;;;;5031159;28;20186;-72
2023/06/19 03:04:12;;;;;;;;;;;;;;;;;;5031242;28;19929;-72
2023/06/19 03:06:40;;;;;;;;;;;;;;;;;;5031293;28;19994;-71
2023/06/19 03:09:11;;;;;;;;;;;;;;;;;;5031151;28;19925;-72
2023/06/19 03:11:38;;;;;;;;;;;;;;;;;;5030897;28;19932;-71
2023/06/19 03:14:07;;;;;;;;;;;;;;;;;;5013041;28;20431;-72
2023/06/19 03:16:33;;;;;;;;;;;;;;;;;;5011674;28;19926;-72
2023/06/19 03:19:00;;;;;;;;;;;;;;;;;;5011226;28;19929;-72
2023/06/19 03:21:27;;;;;;;;;;;;;;;;;;5011337;28;19925;-72
2023/06/19 03:23:54;;;;;;;;;;;;;;;;;;5011618;28;19932;-72
2023/06/19 03:26:21;;;;;;;;;;;;;;;;;;5011253;28;19926;-72
2023/06/19 03:28:48;;;;;;;;;;;;;;;;;;5009815;23;19926;-68
2023/06/19 03:31:14;;;;;;;;;;;;;;;;;;4996564;28;19932;-68
2023/06/19 03:33:41;;;;;;;;;;;;;;;;;;5011357;28;20012;-67
2023/06/19 03:36:08;;;;;;;;;;;;;;;;;;5010442;28;20008;-68
2023/06/19 03:38:35;;;;;;;;;;;;;;;;;;5010780;28;19926;-67
2023/06/19 03:41:03;;;;;;;;;;;;;;;;;;5010018;28;19930;-68
2023/06/19 03:43:29;;;;;;;;;;;;;;;;;;5011322;28;19931;-67
2023/06/19 03:45:55;;;;;;;;;;;;;;;;;;5010649;28;20411;-68
2023/06/19 03:48:22;;;;;;;;;;;;;;;;;;5010782;28;19925;-68
2023/06/19 03:50:48;;;;;;;;;;;;;;;;;;5010067;28;20239;-67
2023/06/19 03:53:15;;;;;;;;;;;;;;;;;;5009595;28;20407;-67
2023/06/19 03:55:41;;;;;;;;;;;;;;;;;;5010209;28;20028;-67
2023/06/19 03:58:09;;;;;;;;;;;;;;;;;;5010648;28;19925;-67
2023/06/19 04:00:35;;;;;;;;;;;;;;;;;;5010286;28;19925;-68
2023/06/19 04:03:02;;;;;;;;;;;;;;;;;;5010346;28;19926;-68
2023/06/19 04:05:28;;;;;;;;;;;;;;;;;;5010547;28;19948;-68
2023/06/19 04:07:54;;;;;;;;;;;;;;;;;;5009857;28;19926;-68
2023/06/19 04:10:21;;;;;;;;;;;;;;;;;;5009800;28;19925;-68
2023/06/19 04:12:47;;;;;;;;;;;;;;;;;;5010152;28;20012;-67
2023/06/19 04:15:15;;;;;;;;;;;;;;;;;;5010412;28;19926;-68
2023/06/19 04:17:42;;;;;;;;;;;;;;;;;;4990037;28;19926;-67
2023/06/19 04:20:10;;;;;;;;;;;;;;;;;;4990268;28;19926;-68
2023/06/19 04:22:37;;;;;;;;;;;;;;;;;;4990274;28;19926;-68
2023/06/19 04:25:03;;;;;;;;;;;;;;;;;;4991180;28;19926;-68
2023/06/19 04:27:30;;;;;;;;;;;;;;;;;;4990576;28;19971;-68
2023/06/19 04:29:56;;;;;;;;;;;;;;;;;;4990443;28;19926;-68
2023/06/19 04:32:24;;;;;;;;;;;;;;;;;;4991250;28;19925;-67
2023/06/19 04:34:51;;;;;;;;;;;;;;;;;;4990327;28;19926;-68
2023/06/19 04:37:19;;;;;;;;;;;;;;;;;;4990394;28;19932;-67
2023/06/19 04:39:45;;;;;;;;;;;;;;;;;;4990100;28;20016;-67
2023/06/19 04:42:12;;;;;;;;;;;;;;;;;;4989945;28;20119;-68
2023/06/19 04:44:38;;;;;;;;;;;;;;;;;;4990658;28;20358;-67
2023/06/19 04:47:05;;;;;;;;;;;;;;;;;;5003946;28;19934;-67
2023/06/19 04:49:33;;;;;;;;;;;;;;;;;;5004494;28;19933;-67
2023/06/19 04:51:59;;;;;;;;;;;;;;;;;;4995939;28;19974;-67
2023/06/19 04:54:26;;;;;;;;;;;;;;;;;;4993166;28;19925;-67
2023/06/19 04:56:53;;;;;;;;;;;;;;;;;;4992312;28;20146;-67
2023/06/19 04:59:19;;;;;;;;;;;;;;;;;;4993685;28;20020;-67
2023/06/19 05:01:46;;;;;;;;;;;;;;;;;;4993015;28;19925;-67
2023/06/19 05:04:12;;;;;;;;;;;;;;;;;;4993599;28;19932;-67
2023/06/19 05:06:40;;;;;;;;;;;;;;;;;;4990501;28;20096;-67
2023/06/19 05:09:06;;;;;;;;;;;;;;;;;;4993427;28;19926;-67
2023/06/19 05:11:32;;;;;;;;;;;;;;;;;;5008060;28;19948;-67
2023/06/19 05:13:59;;;;;;;;;;;;;;;;;;5013754;28;20388;-67
2023/06/19 05:16:25;;;;;;;;;;;;;;;;;;5003140;28;19933;-67
2023/06/19 05:18:52;;;;;;;;;;;;;;;;;;4993351;28;19930;-69
2023/06/19 05:21:19;;;;;;;;;;;;;;;;;;4993430;28;19929;-67
2023/06/19 05:23:50;;;;;;;;;;;;;;;;;;4993278;28;20353;-67
2023/06/19 05:26:16;;;;;;;;;;;;;;;;;;4993931;28;19926;-68
2023/06/19 05:28:43;;;;;;;;;;;;;;;;;;4993430;28;19934;-68
2023/06/19 05:31:09;;;;;;;;;;;;;;;;;;4993492;28;20303;-66
2023/06/19 05:33:35;;;;;;;;;;;;;;;;;;4993389;28;19930;-66
2023/06/19 05:36:02;;;;;;;;;;;;;;;;;;4993926;28;19929;-67
2023/06/19 05:38:30;;;;;;;;;;;;;;;;;;4993859;28;19926;-67
2023/06/19 05:40:58;;;;;;;;;;;;;;;;;;4976115;28;19926;-67
2023/06/19 05:43:24;;;;;;;;;;;;;;;;;;4974550;28;19930;-67
2023/06/19 05:45:51;;;;;;;;;;;;;;;;;;4981234;28;19932;-67
2023/06/19 05:48:17;;;;;;;;;;;;;;;;;;5013258;28;20395;-66
2023/06/19 05:50:43;;;;;;;;;;;;;;;;;;5011996;28;19932;-67
2023/06/19 05:53:10;;;;;;;;;;;;;;;;;;5010367;28;19971;-67
2023/06/19 05:55:36;;;;;;;;;;;;;;;;;;4992967;28;19926;-66
2023/06/19 05:58:04;;;;;;;;;;;;;;;;;;4993223;28;20307;-66
2023/06/19 06:00:32;;;;;;;;;;;;;;;;;;4986332;28;19949;-67
2023/06/19 06:02:59;;;;;;;;;;;;;;;;;;4990361;28;19979;-67
2023/06/19 06:05:26;;;;;;;;;;;;;;;;;;5002130;28;19925;-67
2023/06/19 06:07:52;;;;;;;;;;;;;;;;;;4992348;28;20323;-67
2023/06/19 06:10:20;;;;;;;;;;;;;;;;;;4992412;28;19926;-66
2023/06/19 06:12:47;;;;;;;;;;;;;;;;;;4992285;28;19940;-67
2023/06/19 06:15:15;;;;;;;;;;;;;;;;;;5008462;28;19926;-67
2023/06/19 06:17:41;;;;;;;;;;;;;;;;;;4991413;28;20005;-67
2023/06/19 06:20:11;;;;;;;;;;;;;;;;;;4991440;28;20333;-66
2023/06/19 06:22:38;;;;;;;;;;;;;;;;;;4989157;28;19972;-67
2023/06/19 06:25:05;;;;;;;;;;;;;;;;;;4991526;28;19925;-66
2023/06/19 06:27:31;;;;;;;;;;;;;;;;;;4989873;28;19933;-66
2023/06/19 06:29:57;;;;;;;;;;;;;;;;;;4999271;28;19926;-64
2023/06/19 06:32:26;;;;;;;;;;;;;;;;;;4990674;28;20008;-66
2023/06/19 06:34:52;;;;;;;;;;;;;;;;;;4990959;28;19980;-67
2023/06/19 06:37:22;;;;;;;;;;;;;;;;;;4999352;28;20319;-67
2023/06/19 06:39:49;;;;;;;;;;;;;;;;;;4988286;28;19925;-68
2023/06/19 06:42:15;;;;;;;;;;;;;;;;;;4990189;28;20303;-67
2023/06/19 06:44:42;;;;;;;;;;;;;;;;;;4990083;28;19926;-67
2023/06/19 06:47:08;;;;;;;;;;;;;;;;;;4985624;28;19941;-65
2023/06/19 06:49:36;;;;;;;;;;;;;;;;;;4992855;28;19932;-66
2023/06/19 06:52:03;;;;;;;;;;;;;;;;;;4991927;28;19933;-66
2023/06/19 06:54:29;;;;;;;;;;;;;;;;;;4989707;28;19926;-66
2023/06/19 06:56:58;;;;;;;;;;;;;;;;;;4990953;28;19926;-66
2023/06/19 06:59:25;;;;;;;;;;;;;;;;;;4991530;28;20384;-64
2023/06/19 07:01:51;;;;;;;;;;;;;;;;;;4978588;28;20360;-65
2023/06/19 07:04:17;;;;;;;;;;;;;;;;;;4972174;28;19932;-65
2023/06/19 07:06:45;;;;;;;;;;;;;;;;;;4971763;28;19926;-66
2023/06/19 07:09:12;;;;;;;;;;;;;;;;;;4972173;28;20177;-65
2023/06/19 07:11:38;;;;;;;;;;;;;;;;;;4971801;28;19926;-65
2023/06/19 07:14:05;;;;;;;;;;;;;;;;;;4972107;28;19933;-65
2023/06/19 07:16:31;;;;;;;;;;;;;;;;;;4989423;28;19925;-67
2023/06/19 07:18:58;;;;;;;;;;;;;;;;;;5011470;28;19937;-65
2023/06/19 07:21:24;;;;;;;;;;;;;;;;;;5009961;28;20298;-66
2023/06/19 07:23:52;;;;;;;;;;;;;;;;;;5011107;28;19925;-67
2023/06/19 07:26:18;;;;;;;;;;;;;;;;;;5011556;28;20274;-67
2023/06/19 07:28:45;;;;;;;;;;;;;;;;;;5000817;28;20362;-65
2023/06/19 07:31:11;;;;;;;;;;;;;;;;;;4990746;28;19933;-65
2023/06/19 07:33:38;;;;;;;;;;;;;;;;;;4990897;28;19926;-66
2023/06/19 07:36:04;;;;;;;;;;;;;;;;;;5004794;28;20375;-66
2023/06/19 07:38:31;;;;;;;;;;;;;;;;;;5009836;28;19932;-65
2023/06/19 07:40:58;;;;;;;;;;;;;;;;;;5008245;28;19932;-66
2023/06/19 07:43:25;;;;;;;;;;;;;;;;;;5004965;28;20378;-65
2023/06/19 07:45:51;;;;;;;;;;;;;;;;;;4978272;28;19926;-66
2023/06/19 07:48:17;;;;;;;;;;;;;;;;;;5010607;28;19926;-64
2023/06/19 07:50:44;;;;;;;;;;;;;;;;;;5009557;28;19926;-65
2023/06/19 07:53:11;;;;;;;;;;;;;;;;;;5010132;28;19932;-65
2023/06/19 07:55:37;;;;;;;;;;;;;;;;;;5010244;28;20403;-66
2023/06/19 07:58:05;;;;;;;;;;;;;;;;;;5007327;28;19929;-63
2023/06/19 08:00:31;;;;;;;;;;;;;;;;;;4990355;28;19940;-63
2023/06/19 08:02:58;;;;;;;;;;;;;;;;;;4990246;28;19926;-67
2023/06/19 08:05:24;;;;;;;;;;;;;;;;;;4992257;28;19961;-65
2023/06/19 08:07:51;;;;;;;;;;;;;;;;;;4985128;28;19933;-66
2023/06/19 08:10:18;;;;;;;;;;;;;;;;;;4990246;28;20366;-66
2023/06/19 08:12:45;;;;;;;;;;;;;;;;;;4988949;28;19933;-65
2023/06/19 08:15:13;;;;;;;;;;;;;;;;;;4988610;28;19926;-64
2023/06/19 08:17:40;;;;;;;;;;;;;;;;;;4994371;28;20008;-65
2023/06/19 08:20:07;;;;;;;;;;;;;;;;;;5003280;28;19925;-66
2023/06/19 08:22:33;;;;;;;;;;;;;;;;;;4997235;28;20447;-65
2023/06/19 08:25:00;;;;;;;;;;;;;;;;;;4985856;28;19925;-65
2023/06/19 08:27:26;;;;;;;;;;;;;;;;;;4996219;28;19930;-65
2023/06/19 08:29:53;;;;;;;;;;;;;;;;;;5005610;28;19930;-66
2023/06/19 08:32:21;;;;;;;;;;;;;;;;;;4994063;28;20010;-66
2023/06/19 08:34:47;;;;;;;;;;;;;;;;;;5004943;28;19932;-66
2023/06/19 08:37:14;;;;;;;;;;;;;;;;;;4990575;28;19926;-66
2023/06/19 08:39:40;;;;;;;;;;;;;;;;;;4992357;28;19936;-68
2023/06/19 08:42:07;;;;;;;;;;;;;;;;;;4994575;28;19948;-67
2023/06/19 08:44:34;;;;;;;;;;;;;;;;;;4991815;28;19929;-66
2023/06/19 08:47:00;;;;;;;;;;;;;;;;;;4996302;28;20279;-67
2023/06/19 08:49:30;;;;;;;;;;;;;;;;;;5002307;28;19934;-67
2023/06/19 08:51:56;;;;;;;;;;;;;;;;;;4989721;28;20692;-65
2023/06/19 08:54:22;;;;;;;;;;;;;;;;;;4994298;28;19925;-67
2023/06/19 08:56:49;;;;;;;;;;;;;;;;;;4995494;28;20355;-67
2023/06/19 08:59:17;;;;;;;;;;;;;;;;;;5013025;28;19973;-67
2023/06/19 09:01:51;;;;;;;;;;;;;;;;;;4992674;28;19933;-64
2023/06/19 09:04:19;;;;;;;;;;;;;;;;;;4991592;28;19926;-65
2023/06/19 09:06:50;;;;;;;;;;;;;;;;;;4991947;28;20574;-67
2023/06/19 09:09:17;;;;;;;;;;;;;;;;;;4990457;28;19977;-66
2023/06/19 09:11:44;;;;;;;;;;;;;;;;;;4999235;28;20326;-66
2023/06/19 09:14:11;;;;;;;;;;;;;;;;;;4996989;28;19933;-65
2023/06/19 09:16:38;;;;;;;;;;;;;;;;;;4993604;28;19932;-65
2023/06/19 09:19:05;;;;;;;;;;;;;;;;;;4993539;28;19933;-65
2023/06/19 09:21:31;;;;;;;;;;;;;;;;;;4992808;28;19966;-65
2023/06/19 09:24:04;;;;;;;;;;;;;;;;;;5011609;28;19926;-64
2023/06/19 09:26:30;;;;;;;;;;;;;;;;;;4991760;28;20611;-66
2023/06/19 09:28:57;;;;;;;;;;;;;;;;;;5021280;23;19932;-79
2023/06/19 09:31:32;;;;;;;;;;;;;;;;;;5018300;28;19926;-80
2023/06/19 09:33:58;;;;;;;;;;;;;;;;;;5022633;28;19925;-78
2023/06/19 09:36:26;;;;;;;;;;;;;;;;;;5030078;28;19925;-78
2023/06/19 09:38:55;;;;;;;;;;;;;;;;;;5022605;28;20305;-79
2023/06/19 09:41:24;;;;;;;;;;;;;;;;;;5017934;28;19925;-78
2023/06/19 09:43:52;;;;;;;;;;;;;;;;;;5022870;28;20384;-79
2023/06/19 09:46:19;;;;;;;;;;;;;;;;;;5026050;28;19925;-78
2023/06/19 09:48:47;;;;;;;;;;;;;;;;;;5024704;28;19936;-79
2023/06/19 09:51:17;;;;;;;;;;;;;;;;;;5021448;28;19929;-78
2023/06/19 09:53:45;;;;;;;;;;;;;;;;;;5021759;28;19925;-79
2023/06/19 09:56:12;;;;;;;;;;;;;;;;;;5023319;28;19932;-79
2023/06/19 09:58:41;;;;;;;;;;;;;;;;;;5027271;28;19926;-80
2023/06/19 10:01:08;;;;;;;;;;;;;;;;;;5019083;28;19929;-76
2023/06/19 10:03:35;;;;;;;;;;;;;;;;;;5017033;28;19938;-80
2023/06/19 10:06:02;;;;;;;;;;;;;;;;;;5018038;28;19961;-80
2023/06/19 10:08:30;;;;;;;;;;;;;;;;;;5020345;28;19925;-80
2023/06/19 10:10:57;;;;;;;;;;;;;;;;;;5021158;28;19925;-80
2023/06/19 10:13:31;;;;;;;;;;;;;;;;;;5018186;28;19987;-79
2023/06/19 10:15:59;;;;;;;;;;;;;;;;;;5016090;28;19932;-78
2023/06/19 10:18:26;;;;;;;;;;;;;;;;;;5025398;28;19932;-80
2023/06/19 10:20:54;;;;;;;;;;;;;;;;;;5025531;28;19925;-79
2023/06/19 10:23:22;;;;;;;;;;;;;;;;;;5021755;28;19926;-77
2023/06/19 10:25:49;;;;;;;;;;;;;;;;;;5023317;28;19925;-80
2023/06/19 10:28:19;;;;;;;;;;;;;;;;;;5024036;28;19925;-79
2023/06/19 10:30:46;;;;;;;;;;;;;;;;;;5017867;28;19925;-80
2023/06/19 10:33:13;;;;;;;;;;;;;;;;;;5015246;28;20461;-78
2023/06/19 10:35:40;;;;;;;;;;;;;;;;;;5024145;28;19929;-78
2023/06/19 10:38:07;;;;;;;;;;;;;;;;;;5013798;28;20404;-81
2023/06/19 10:40:33;;;;;;;;;;;;;;;;;;5024178;28;20321;-77
2023/06/19 10:42:59;;;;;;;;;;;;;;;;;;5012592;28;19952;-79
2023/06/19 10:45:28;;;;;;;;;;;;;;;;;;5021699;28;20016;-81
2023/06/19 10:47:55;;;;;;;;;;;;;;;;;;5022059;28;20029;-82
2023/06/19 10:50:23;;;;;;;;;;;;;;;;;;5021175;28;19933;-80
2023/06/19 10:52:54;;;;;;;;;;;;;;;;;;5022951;28;19935;-79
2023/06/19 10:55:21;;;;;;;;;;;;;;;;;;5023850;28;20046;-81
2023/06/19 10:57:48;;;;;;;;;;;;;;;;;;5023409;28;20383;-80
2023/06/19 11:00:23;;;;;;;;;;;;;;;;;;5017096;28;19930;-81
2023/06/19 11:02:49;;;;;;;;;;;;;;;;;;5023202;28;19940;-80
2023/06/19 11:05:16;;;;;;;;;;;;;;;;;;5016167;28;19964;-79
2023/06/19 11:07:44;;;;;;;;;;;;;;;;;;5019752;28;19947;-80
2023/06/19 11:10:19;;;;;;;;;;;;;;;;;;5017770;28;19925;-80
2023/06/19 11:12:45;;;;;;;;;;;;;;;;;;5009890;28;19943;-81
2023/06/19 11:15:12;;;;;;;;;;;;;;;;;;5012755;28;19913;-79
2023/06/19 11:17:39;;;;;;;;;;;;;;;;;;5008993;28;20004;-80
2023/06/19 11:20:11;;;;;;;;;;;;;;;;;;5006759;28;19929;-82
2023/06/19 11:22:38;;;;;;;;;;;;;;;;;;5013485;28;20365;-83
2023/06/19 11:25:07;;;;;;;;;;;;;;;;;;5022380;28;19980;-82
2023/06/19 11:27:35;;;;;;;;;;;;;;;;;;5026590;28;20187;-81
2023/06/19 11:30:04;;;;;;;;;;;;;;;;;;5026194;28;19926;-82
2023/06/19 11:32:35;;;;;;;;;;;;;;;;;;5023542;28;20408;-80
2023/06/19 11:35:08;;;;;;;;;;;;;;;;;;5022659;28;20389;-83
2023/06/19 11:37:35;;;;;;;;;;;;;;;;;;5033792;28;19936;-80
2023/06/19 11:40:03;;;;;;;;;;;;;;;;;;5040315;28;19935;-82
2023/06/19 11:42:32;;;;;;;;;;;;;;;;;;5025088;28;19925;-81
2023/06/19 11:45:01;;;;;;;;;;;;;;;;;;5021725;28;19930;-83
2023/06/19 11:47:30;;;;;;;;;;;;;;;;;;5025473;28;19973;-83
2023/06/19 11:49:59;;;;;;;;;;;;;;;;;;5026723;28;19936;-82
2023/06/19 11:52:25;;;;;;;;;;;;;;;;;;5014975;28;20300;-80
2023/06/19 11:54:53;;;;;;;;;;;;;;;;;;5023291;28;19925;-82
2023/06/19 11:57:20;;;;;;;;;;;;;;;;;;5024325;28;19925;-81
2023/06/19 11:59:48;;;;;;;;;;;;;;;;;;5023711;28;19926;-81
2023/06/19 12:02:15;;;;;;;;;;;;;;;;;;5025773;28;19972;-80
2023/06/19 12:04:41;;;;;;;;;;;;;;;;;;5022094;28;19926;-81
2023/06/19 12:07:08;;;;;;;;;;;;;;;;;;5010042;28;19925;-79
2023/06/19 12:09:34;;;;;;;;;;;;;;;;;;5022011;28;19930;-82
2023/06/19 12:12:01;;;;;;;;;;;;;;;;;;5023638;28;19947;-81
2023/06/19 12:14:27;;;;;;;;;;;;;;;;;;5030619;28;20076;-82
2023/06/19 12:16:55;;;;;;;;;;;;;;;;;;5014781;28;20385;-81
2023/06/19 12:19:21;;;;;;;;;;;;;;;;;;5019433;28;20167;-82
2023/06/19 12:21:48;;;;;;;;;;;;;;;;;;5016555;28;19938;-82
2023/06/19 12:24:14;;;;;;;;;;;;;;;;;;5015110;28;19933;-81
2023/06/19 12:26:41;;;;;;;;;;;;;;;;;;5025616;28;19980;-81
2023/06/19 12:29:07;;;;;;;;;;;;;;;;;;5037302;28;19929;-81
2023/06/19 12:31:34;;;;;;;;;;;;;;;;;;5016276;28;20263;-81
2023/06/19 12:34:02;;;;;;;;;;;;;;;;;;5016404;28;19932;-81
2023/06/19 12:36:28;;;;;;;;;;;;;;;;;;5016042;28;19979;-80
2023/06/19 12:38:55;;;;;;;;;;;;;;;;;;5016285;28;19925;-81
2023/06/19 12:41:22;;;;;;;;;;;;;;;;;;5016195;28;19925;-83
2023/06/19 12:43:48;;;;;;;;;;;;;;;;;;5016086;28;19995;-83
2023/06/19 12:46:14;;;;;;;;;;;;;;;;;;5015052;28;20028;-81
2023/06/19 12:48:42;;;;;;;;;;;;;;;;;;5016432;28;20563;-82
2023/06/19 12:51:10;;;;;;;;;;;;;;;;;;5014442;28;19981;-83
2023/06/19 12:53:36;;;;;;;;;;;;;;;;;;5017024;28;19979;-82
2023/06/19 12:56:02;;;;;;;;;;;;;;;;;;5022008;28;20377;-81
2023/06/19 12:58:29;;;;;;;;;;;;;;;;;;5023036;28;19925;-81
2023/06/19 13:00:55;;;;;;;;;;;;;;;;;;5015056;28;19951;-81
2023/06/19 13:03:22;;;;;;;;;;;;;;;;;;5015437;28;19925;-81
2023/06/19 13:05:48;;;;;;;;;;;;;;;;;;5014014;28;19929;-80
2023/06/19 13:08:16;;;;;;;;;;;;;;;;;;5019622;28;19925;-81
2023/06/19 13:10:43;;;;;;;;;;;;;;;;;;5023494;28;19937;-81
2023/06/19 13:13:10;;;;;;;;;;;;;;;;;;5035146;28;20300;-81
2023/06/19 13:15:36;;;;;;;;;;;;;;;;;;5019850;28;19933;-81
2023/06/19 13:18:03;;;;;;;;;;;;;;;;;;5019588;28;19925;-82
2023/06/19 13:20:29;;;;;;;;;;;;;;;;;;5020116;28;19932;-80
2023/06/19 13:22:56;;;;;;;;;;;;;;;;;;5019409;28;19925;-81
2023/06/19 13:25:23;;;;;;;;;;;;;;;;;;5018952;28;19925;-81
2023/06/19 13:27:50;;;;;;;;;;;;;;;;;;5018394;28;19926;-81
2023/06/19 13:30:17;;;;;;;;;;;;;;;;;;5017945;28;19925;-80
2023/06/19 13:32:43;;;;;;;;;;;;;;;;;;5017448;28;19925;-81
2023/06/19 13:35:09;;;;;;;;;;;;;;;;;;5016920;28;19979;-80
2023/06/19 13:37:36;;;;;;;;;;;;;;;;;;5020793;28;19940;-84
2023/06/19 13:40:03;;;;;;;;;;;;;;;;;;5021449;28;19976;-84
2023/06/19 13:42:31;;;;;;;;;;;;;;;;;;5028874;28;19926;-83
2023/06/19 13:44:58;;;;;;;;;;;;;;;;;;5026429;28;19929;-81
2023/06/19 13:47:26;;;;;;;;;;;;;;;;;;5016901;28;19974;-79
2023/06/19 13:49:52;;;;;;;;;;;;;;;;;;5016523;28;19932;-81
2023/06/19 13:52:19;;;;;;;;;;;;;;;;;;5016783;28;19932;-81
2023/06/19 13:54:45;;;;;;;;;;;;;;;;;;5016703;28;20008;-81
2023/06/19 13:57:12;;;;;;;;;;;;;;;;;;5015928;28;19925;-79
2023/06/19 13:59:39;;;;;;;;;;;;;;;;;;5016141;28;19929;-79
2023/06/19 14:02:06;;;;;;;;;;;;;;;;;;5015914;28;19949;-79
2023/06/19 14:04:32;;;;;;;;;;;;;;;;;;5016439;28;19926;-79
2023/06/19 14:06:58;;;;;;;;;;;;;;;;;;5016720;28;19926;-80
2023/06/19 14:09:25;;;;;;;;;;;;;;;;;;5016525;28;19932;-80
2023/06/19 14:11:51;;;;;;;;;;;;;;;;;;5016446;28;20296;-81
2023/06/19 14:14:18;;;;;;;;;;;;;;;;;;5016202;28;20008;-81
2023/06/19 14:16:45;;;;;;;;;;;;;;;;;;5016617;28;19930;-81
2023/06/19 14:19:12;;;;;;;;;;;;;;;;;;5016704;28;19925;-81
2023/06/19 14:21:38;;;;;;;;;;;;;;;;;;5016324;28;19925;-81
2023/06/19 14:24:05;;;;;;;;;;;;;;;;;;5016968;28;20312;-80
2023/06/19 14:26:31;;;;;;;;;;;;;;;;;;5018510;28;19925;-81
2023/06/19 14:28:58;;;;;;;;;;;;;;;;;;5017468;28;20341;-81
2023/06/19 14:31:25;;;;;;;;;;;;;;;;;;5019014;28;19979;-82
2023/06/19 14:33:53;;;;;;;;;;;;;;;;;;5017443;28;19925;-81
2023/06/19 14:36:19;;;;;;;;;;;;;;;;;;5015375;28;20344;-80
2023/06/19 14:38:45;;;;;;;;;;;;;;;;;;5014762;28;19925;-80
2023/06/19 14:41:12;;;;;;;;;;;;;;;;;;5014878;28;19931;-81
2023/06/19 14:43:38;;;;;;;;;;;;;;;;;;5015325;28;19930;-79
2023/06/19 14:46:05;;;;;;;;;;;;;;;;;;5014727;28;19925;-80
2023/06/19 14:48:31;;;;;;;;;;;;;;;;;;5015208;28;19929;-80
2023/06/19 14:50:59;;;;;;;;;;;;;;;;;;5014479;28;20320;-80
2023/06/19 14:53:25;;;;;;;;;;;;;;;;;;5014749;28;19932;-81
2023/06/19 14:55:52;;;;;;;;;;;;;;;;;;5014725;28;19926;-80
2023/06/19 14:58:18;;;;;;;;;;;;;;;;;;5014701;28;19972;-81
2023/06/19 15:00:45;;;;;;;;;;;;;;;;;;5014305;28;20397;-80
2023/06/19 15:03:11;;;;;;;;;;;;;;;;;;5014322;28;20288;-81
2023/06/19 15:05:39;;;;;;;;;;;;;;;;;;5014748;28;19965;-81
2023/06/19 15:08:09;;;;;;;;;;;;;;;;;;5029017;28;19925;-81
2023/06/19 15:10:35;;;;;;;;;;;;;;;;;;5034283;28;19980;-81
2023/06/19 15:13:01;;;;;;;;;;;;;;;;;;5034654;28;19925;-80
2023/06/19 15:15:28;;;;;;;;;;;;;;;;;;5034260;28;20024;-80
2023/06/19 15:17:54;;;;;;;;;;;;;;;;;;5034044;28;19925;-79
2023/06/19 15:20:20;;;;;;;;;;;;;;;;;;5020463;28;19932;-80
2023/06/19 15:22:47;;;;;;;;;;;;;;;;;;5014061;28;19936;-82
2023/06/19 15:25:15;;;;;;;;;;;;;;;;;;5015146;28;19972;-80
2023/06/19 15:30:13;;;;;;;;;;;;;;;;;;5015868;28;19925;-79
2023/06/19 15:32:40;;;;;;;;;;;;;;;;;;5017600;28;19925;-78
2023/06/19 15:35:07;;;;;;;;;;;;;;;;;;5015370;28;20406;-80
2023/06/19 15:37:33;;;;;;;;;;;;;;;;;;5017989;28;20020;-81
2023/06/19 15:40:01;;;;;;;;;;;;;;;;;;5017667;28;20396;-80
2023/06/19 15:42:31;;;;;;;;;;;;;;;;;;5018098;28;20278;-79
2023/06/19 15:44:58;;;;;;;;;;;;;;;;;;5017650;28;19930;-79
2023/06/19 15:47:24;;;;;;;;;;;;;;;;;;5017961;28;19925;-80
2023/06/19 15:49:51;;;;;;;;;;;;;;;;;;5017803;28;19926;-80
2023/06/19 15:52:19;;;;;;;;;;;;;;;;;;5016880;28;20024;-80
2023/06/19 15:54:45;;;;;;;;;;;;;;;;;;5017640;28;20303;-80
2023/06/19 15:57:12;;;;;;;;;;;;;;;;;;5017211;28;20376;-80
2023/06/19 15:59:40;;;;;;;;;;;;;;;;;;5017010;28;19937;-79
2023/06/19 16:02:06;;;;;;;;;;;;;;;;;;5015837;28;20284;-79
2023/06/19 16:04:33;;;;;;;;;;;;;;;;;;5016414;28;19926;-80
2023/06/19 16:06:59;;;;;;;;;;;;;;;;;;5016535;28;20092;-80
2023/06/19 16:09:25;;;;;;;;;;;;;;;;;;5016789;28;19925;-80
2023/06/19 16:11:52;;;;;;;;;;;;;;;;;;5015363;28;19925;-80
2023/06/19 16:14:18;;;;;;;;;;;;;;;;;;5016904;28;19976;-80
2023/06/19 16:16:46;;;;;;;;;;;;;;;;;;5015876;28;20404;-80
2023/06/19 16:19:12;;;;;;;;;;;;;;;;;;5016865;28;19925;-80
2023/06/19 16:21:39;;;;;;;;;;;;;;;;;;5016873;28;20369;-80
2023/06/19 16:24:05;;;;;;;;;;;;;;;;;;5017748;28;19940;-79
2023/06/19 16:26:32;;;;;;;;;;;;;;;;;;5017946;28;19926;-80
2023/06/19 16:28:58;;;;;;;;;;;;;;;;;;5016492;28;19936;-80
2023/06/19 16:31:24;;;;;;;;;;;;;;;;;;5017398;28;19925;-79
2023/06/19 16:33:52;;;;;;;;;;;;;;;;;;5017017;28;20016;-80
2023/06/19 16:36:19;;;;;;;;;;;;;;;;;;5017339;28;19925;-80
2023/06/19 16:38:46;;;;;;;;;;;;;;;;;;5017966;28;19925;-81
2023/06/19 16:41:13;;;;;;;;;;;;;;;;;;5017684;28;19926;-81
2023/06/19 16:43:39;;;;;;;;;;;;;;;;;;5017130;28;19979;-81
2023/06/19 16:46:06;;;;;;;;;;;;;;;;;;5017062;28;20461;-81